createdAt,value
2019-04-25T00:00:25.209Z,0.00
2019-04-25T00:01:25.178Z,0.00
2019-04-25T00:02:25.172Z,0.00
2019-04-25T00:03:25.161Z,0.00
2019-04-25T00:04:25.144Z,0.00
2019-04-25T00:05:25.136Z,0.00
2019-04-25T00:06:25.130Z,0.00
2019-04-25T00:07:25.111Z,0.00
2019-04-25T00:08:25.103Z,0.00
2019-04-25T00:09:25.090Z,0.00
2019-04-25T00:10:25.087Z,0.00
2019-04-25T00:11:25.094Z,0.00
2019-04-25T00:12:25.068Z,0.00
2019-04-25T00:13:25.105Z,0.00
2019-04-25T00:14:25.052Z,0.00
2019-04-25T00:15:25.080Z,0.00
2019-04-25T00:16:25.029Z,0.00
2019-04-25T00:17:25.047Z,0.00
2019-04-25T00:18:25.014Z,0.00
2019-04-25T00:19:24.983Z,0.00
2019-04-25T00:20:24.969Z,0.00
2019-04-25T00:21:24.961Z,0.00
2019-04-25T00:22:24.943Z,0.00
2019-04-25T00:23:24.940Z,0.00
2019-04-25T00:24:24.927Z,0.00
2019-04-25T00:25:24.915Z,0.00
2019-04-25T00:26:35.080Z,0.00
2019-04-25T00:27:24.889Z,0.00
2019-04-25T00:28:24.921Z,0.00
2019-04-25T00:29:24.863Z,0.00
2019-04-25T00:30:24.852Z,0.00
2019-04-25T00:31:26.116Z,0.00
2019-04-25T00:32:24.832Z,0.00
2019-04-25T00:33:24.821Z,0.00
2019-04-25T00:34:24.846Z,0.00
2019-04-25T00:35:24.796Z,0.00
2019-04-25T00:36:24.791Z,0.00
2019-04-25T00:37:24.777Z,0.00
2019-04-25T00:38:24.766Z,0.00
2019-04-25T00:39:24.754Z,0.00
2019-04-25T00:40:24.750Z,0.00
2019-04-25T00:41:24.736Z,0.00
2019-04-25T00:42:24.726Z,0.00
2019-04-25T00:43:24.714Z,0.00
2019-04-25T00:44:24.697Z,0.00
2019-04-25T00:45:24.736Z,0.00
2019-04-25T00:46:24.680Z,0.00
2019-04-25T00:47:24.665Z,0.00
2019-04-25T00:48:24.652Z,0.00
2019-04-25T00:49:24.643Z,0.00
2019-04-25T00:50:24.626Z,0.00
2019-04-25T00:51:24.658Z,0.00
2019-04-25T00:52:24.611Z,0.00
2019-04-25T00:53:24.597Z,0.00
2019-04-25T00:54:24.590Z,0.00
2019-04-25T00:55:28.671Z,0.00
2019-04-25T00:56:24.561Z,0.00
2019-04-25T00:57:36.442Z,0.00
2019-04-25T00:58:24.542Z,0.00
2019-04-25T00:59:24.531Z,0.00
2019-04-25T01:00:24.517Z,0.00
2019-04-25T01:01:24.508Z,0.00
2019-04-25T01:02:24.500Z,0.00
2019-04-25T01:03:24.528Z,0.00
2019-04-25T01:04:24.469Z,0.00
2019-04-25T01:05:24.457Z,0.00
2019-04-25T01:06:24.449Z,0.00
2019-04-25T01:07:24.441Z,0.00
2019-04-25T01:08:24.431Z,0.00
2019-04-25T01:09:24.422Z,0.00
2019-04-25T01:10:24.407Z,0.00
2019-04-25T01:11:24.393Z,0.00
2019-04-25T01:12:24.379Z,0.00
2019-04-25T01:13:24.375Z,0.00
2019-04-25T01:14:24.398Z,0.00
2019-04-25T01:15:24.351Z,0.00
2019-04-25T01:16:24.342Z,0.00
2019-04-25T01:17:24.326Z,0.00
2019-04-25T01:18:25.217Z,0.00
2019-04-25T01:19:24.305Z,0.00
2019-04-25T01:20:24.303Z,0.00
2019-04-25T01:21:25.344Z,0.00
2019-04-25T01:22:24.273Z,0.00
2019-04-25T01:23:24.264Z,0.00
2019-04-25T01:24:24.251Z,0.00
2019-04-25T01:25:24.281Z,0.00
2019-04-25T01:26:24.224Z,0.00
2019-04-25T01:27:24.215Z,0.00
2019-04-25T01:28:35.460Z,0.00
2019-04-25T01:29:24.200Z,0.00
2019-04-25T01:30:24.180Z,0.00
2019-04-25T01:31:24.932Z,0.00
2019-04-25T01:32:24.162Z,0.00
2019-04-25T01:33:24.150Z,0.00
2019-04-25T01:34:25.753Z,0.00
2019-04-25T01:35:24.129Z,0.00
2019-04-25T01:36:24.115Z,0.00
2019-04-25T01:37:25.783Z,0.00
2019-04-25T01:38:24.164Z,0.00
2019-04-25T01:39:24.230Z,0.00
2019-04-25T01:40:24.076Z,0.00
2019-04-25T01:41:24.342Z,0.00
2019-04-25T01:42:24.046Z,0.00
2019-04-25T01:43:24.075Z,0.00
2019-04-25T01:44:24.182Z,0.00
2019-04-25T01:45:24.052Z,0.00
2019-04-25T01:46:24.342Z,0.00
2019-04-25T01:47:24.042Z,0.00
2019-04-25T01:48:23.983Z,0.00
2019-04-25T01:49:24.003Z,0.00
2019-04-25T01:50:23.962Z,0.00
2019-04-25T01:51:24.078Z,0.00
2019-04-25T01:52:23.935Z,0.00
2019-04-25T01:53:24.164Z,0.00
2019-04-25T01:54:23.912Z,0.00
2019-04-25T01:55:23.902Z,0.00
2019-04-25T01:56:24.748Z,0.00
2019-04-25T01:57:24.047Z,0.00
2019-04-25T01:58:23.873Z,0.00
2019-04-25T01:59:36.510Z,0.00
2019-04-25T02:00:23.845Z,0.00
2019-04-25T02:01:24.132Z,0.00
2019-04-25T02:02:23.828Z,0.00
2019-04-25T02:03:27.094Z,0.00
2019-04-25T02:04:23.804Z,0.00
2019-04-25T02:05:23.813Z,0.00
2019-04-25T02:06:24.777Z,0.00
2019-04-25T02:07:23.771Z,0.00
2019-04-25T02:08:23.926Z,0.00
2019-04-25T02:09:24.959Z,0.00
2019-04-25T02:10:23.735Z,0.00
2019-04-25T02:11:24.054Z,0.00
2019-04-25T02:12:23.718Z,0.00
2019-04-25T02:13:23.722Z,0.00
2019-04-25T02:14:23.783Z,0.00
2019-04-25T02:15:23.680Z,0.00
2019-04-25T02:16:23.869Z,0.00
2019-04-25T02:17:24.115Z,0.00
2019-04-25T02:18:23.795Z,0.00
2019-04-25T02:19:24.177Z,0.00
2019-04-25T02:20:23.909Z,0.00
2019-04-25T02:21:23.658Z,0.00
2019-04-25T02:22:24.325Z,0.00
2019-04-25T02:23:24.079Z,0.00
2019-04-25T02:24:23.741Z,0.00
2019-04-25T02:25:24.603Z,0.00
2019-04-25T02:26:24.101Z,0.00
2019-04-25T02:27:24.255Z,0.00
2019-04-25T02:28:24.020Z,0.00
2019-04-25T02:29:23.591Z,0.00
2019-04-25T02:30:35.840Z,0.00
2019-04-25T02:31:24.708Z,0.00
2019-04-25T02:32:24.796Z,0.00
2019-04-25T02:33:24.213Z,0.00
2019-04-25T02:34:25.048Z,0.00
2019-04-25T02:35:24.634Z,0.00
2019-04-25T02:36:24.686Z,0.00
2019-04-25T02:37:25.590Z,0.00
2019-04-25T02:38:24.335Z,0.00
2019-04-25T02:39:24.586Z,0.00
2019-04-25T02:40:23.970Z,0.00
2019-04-25T02:41:25.020Z,0.00
2019-04-25T02:42:24.657Z,4.00
2019-04-25T02:43:23.898Z,4.00
2019-04-25T02:44:24.754Z,4.00
2019-04-25T02:45:24.515Z,4.00
2019-04-25T02:46:24.813Z,4.00
2019-04-25T02:47:24.882Z,4.00
2019-04-25T02:48:24.191Z,4.00
2019-04-25T02:49:33.019Z,4.00
2019-04-25T02:50:24.712Z,4.00
2019-04-25T02:51:24.337Z,4.00
2019-04-25T02:52:24.669Z,4.00
2019-04-25T02:53:23.987Z,4.00
2019-04-25T02:54:24.523Z,0.00
2019-04-25T02:55:34.064Z,0.00
2019-04-25T02:56:31.286Z,0.00
2019-04-25T02:57:25.145Z,0.00
2019-04-25T02:58:24.303Z,152.00
2019-04-25T02:59:25.342Z,196.00
2019-04-25T03:00:24.870Z,196.00
2019-04-25T03:01:34.329Z,196.00
2019-04-25T03:02:24.767Z,188.00
2019-04-25T03:03:24.566Z,196.00
2019-04-25T03:04:24.098Z,200.00
2019-04-25T03:05:25.432Z,200.00
2019-04-25T03:06:24.963Z,200.00
2019-04-25T03:07:24.771Z,196.00
2019-04-25T03:08:24.397Z,196.00
2019-04-25T03:09:24.985Z,196.00
2019-04-25T03:10:26.738Z,196.00
2019-04-25T03:11:24.538Z,192.00
2019-04-25T03:12:32.436Z,192.00
2019-04-25T03:13:24.727Z,192.00
2019-04-25T03:14:24.703Z,192.00
2019-04-25T03:15:24.414Z,192.00
2019-04-25T03:16:24.975Z,188.00
2019-04-25T03:17:24.661Z,188.00
2019-04-25T03:18:24.859Z,188.00
2019-04-25T03:19:24.400Z,8.00
2019-04-25T03:20:24.359Z,8.00
2019-04-25T03:21:24.984Z,8.00
2019-04-25T03:22:26.426Z,4.00
2019-04-25T03:23:24.487Z,8.00
2019-04-25T03:24:24.945Z,8.00
2019-04-25T03:25:24.821Z,8.00
2019-04-25T03:26:23.383Z,8.00
2019-04-25T03:27:22.873Z,8.00
2019-04-25T03:28:23.870Z,8.00
2019-04-25T03:29:24.666Z,4.00
2019-04-25T03:30:25.276Z,8.00
2019-04-25T03:31:26.749Z,8.00
2019-04-25T03:32:35.534Z,8.00
2019-04-25T03:33:25.741Z,8.00
2019-04-25T03:34:25.318Z,8.00
2019-04-25T03:35:23.295Z,8.00
2019-04-25T03:36:23.874Z,8.00
2019-04-25T03:37:23.417Z,8.00
2019-04-25T03:38:24.199Z,8.00
2019-04-25T03:39:24.162Z,8.00
2019-04-25T03:40:23.544Z,8.00
2019-04-25T03:41:24.425Z,4.00
2019-04-25T03:42:24.058Z,4.00
2019-04-25T03:43:23.250Z,4.00
2019-04-25T03:44:23.710Z,4.00
2019-04-25T03:45:23.700Z,8.00
2019-04-25T03:46:23.323Z,8.00
2019-04-25T03:47:23.570Z,8.00
2019-04-25T03:48:25.116Z,8.00
2019-04-25T03:49:23.868Z,8.00
2019-04-25T03:50:23.295Z,8.00
2019-04-25T03:51:23.990Z,8.00
2019-04-25T03:52:23.886Z,8.00
2019-04-25T03:53:23.992Z,8.00
2019-04-25T03:54:23.579Z,8.00
2019-04-25T03:55:23.976Z,8.00
2019-04-25T03:56:22.559Z,8.00
2019-04-25T03:57:23.301Z,8.00
2019-04-25T03:58:23.958Z,8.00
2019-04-25T03:59:23.642Z,8.00
2019-04-25T04:00:24.067Z,8.00
2019-04-25T04:01:24.198Z,12.00
2019-04-25T04:02:23.525Z,12.00
2019-04-25T04:03:33.904Z,8.00
2019-04-25T04:04:23.725Z,8.00
2019-04-25T04:05:23.338Z,8.00
2019-04-25T04:06:24.018Z,8.00
2019-04-25T04:07:23.800Z,8.00
2019-04-25T04:08:24.182Z,8.00
2019-04-25T04:09:23.990Z,8.00
2019-04-25T04:10:23.259Z,8.00
2019-04-25T04:11:23.795Z,8.00
2019-04-25T04:12:24.172Z,8.00
2019-04-25T04:13:24.247Z,8.00
2019-04-25T04:14:23.995Z,8.00
2019-04-25T04:15:23.184Z,8.00
2019-04-25T04:16:23.244Z,12.00
2019-04-25T04:17:23.759Z,12.00
2019-04-25T04:18:25.358Z,12.00
2019-04-25T04:19:23.956Z,12.00
2019-04-25T04:20:23.509Z,12.00
2019-04-25T04:21:23.518Z,12.00
2019-04-25T04:22:22.270Z,12.00
2019-04-25T04:23:23.205Z,8.00
2019-04-25T04:24:23.879Z,8.00
2019-04-25T04:25:23.615Z,8.00
2019-04-25T04:26:23.205Z,8.00
2019-04-25T04:27:23.871Z,8.00
2019-04-25T04:28:23.579Z,12.00
2019-04-25T04:29:25.086Z,12.00
2019-04-25T04:30:22.186Z,12.00
2019-04-25T04:31:23.513Z,12.00
2019-04-25T04:32:22.153Z,12.00
2019-04-25T04:33:30.175Z,12.00
2019-04-25T04:35:35.318Z,12.00
2019-04-25T04:36:35.290Z,12.00
2019-04-25T04:37:35.284Z,12.00
2019-04-25T04:38:35.300Z,12.00
2019-04-25T04:39:35.298Z,12.00
2019-04-25T04:40:36.160Z,12.00
2019-04-25T04:41:35.281Z,12.00
2019-04-25T04:42:35.225Z,12.00
2019-04-25T04:43:35.215Z,12.00
2019-04-25T04:44:35.205Z,12.00
2019-04-25T04:45:35.196Z,12.00
2019-04-25T04:46:35.180Z,12.00
2019-04-25T04:47:35.175Z,16.00
2019-04-25T04:48:35.163Z,16.00
2019-04-25T04:49:35.145Z,16.00
2019-04-25T04:50:35.131Z,12.00
2019-04-25T04:51:35.125Z,16.00
2019-04-25T04:52:35.129Z,16.00
2019-04-25T04:53:35.853Z,12.00
2019-04-25T04:54:35.086Z,12.00
2019-04-25T04:55:35.076Z,12.00
2019-04-25T04:56:35.067Z,12.00
2019-04-25T04:57:36.281Z,12.00
2019-04-25T04:58:35.048Z,16.00
2019-04-25T04:59:35.033Z,16.00
2019-04-25T05:00:35.019Z,16.00
2019-04-25T05:01:35.010Z,16.00
2019-04-25T05:02:35.001Z,12.00
2019-04-25T05:03:34.995Z,136.00
2019-04-25T05:04:35.023Z,192.00
2019-04-25T05:05:41.957Z,200.00
2019-04-25T05:06:34.968Z,196.00
2019-04-25T05:07:34.947Z,204.00
2019-04-25T05:08:34.954Z,200.00
2019-04-25T05:09:34.930Z,204.00
2019-04-25T05:10:34.910Z,208.00
2019-04-25T05:11:34.894Z,208.00
2019-04-25T05:12:34.892Z,208.00
2019-04-25T05:13:34.874Z,208.00
2019-04-25T05:14:34.872Z,204.00
2019-04-25T05:15:34.856Z,200.00
2019-04-25T05:16:34.839Z,208.00
2019-04-25T05:17:34.830Z,204.00
2019-04-25T05:18:39.448Z,200.00
2019-04-25T05:19:35.833Z,204.00
2019-04-25T05:20:35.609Z,196.00
2019-04-25T05:21:34.784Z,200.00
2019-04-25T05:22:34.775Z,200.00
2019-04-25T05:23:34.762Z,200.00
2019-04-25T05:24:34.777Z,200.00
2019-04-25T05:25:34.780Z,204.00
2019-04-25T05:26:34.735Z,200.00
2019-04-25T05:27:42.786Z,192.00
2019-04-25T05:28:35.706Z,196.00
2019-04-25T05:29:34.707Z,188.00
2019-04-25T05:30:34.688Z,196.00
2019-04-25T05:31:34.687Z,188.00
2019-04-25T05:32:34.730Z,188.00
2019-04-25T05:33:34.659Z,188.00
2019-04-25T05:34:34.655Z,192.00
2019-04-25T05:35:34.631Z,188.00
2019-04-25T05:36:47.184Z,188.00
2019-04-25T05:37:34.608Z,184.00
2019-04-25T05:38:34.603Z,180.00
2019-04-25T05:39:34.588Z,188.00
2019-04-25T05:40:34.579Z,192.00
2019-04-25T05:41:35.988Z,192.00
2019-04-25T05:42:34.601Z,196.00
2019-04-25T05:43:34.547Z,196.00
2019-04-25T05:44:34.534Z,196.00
2019-04-25T05:45:34.526Z,192.00
2019-04-25T05:46:34.519Z,192.00
2019-04-25T05:47:34.503Z,196.00
2019-04-25T05:48:34.500Z,192.00
2019-04-25T05:49:34.478Z,196.00
2019-04-25T05:50:34.476Z,192.00
2019-04-25T05:51:34.460Z,192.00
2019-04-25T05:52:34.450Z,200.00
2019-04-25T05:53:34.478Z,196.00
2019-04-25T05:54:34.544Z,196.00
2019-04-25T05:55:34.428Z,192.00
2019-04-25T05:56:34.415Z,196.00
2019-04-25T05:57:45.504Z,196.00
2019-04-25T05:58:35.391Z,196.00
2019-04-25T05:59:34.378Z,196.00
2019-04-25T06:00:34.359Z,200.00
2019-04-25T06:01:35.831Z,200.00
2019-04-25T06:02:34.339Z,200.00
2019-04-25T06:03:34.330Z,200.00
2019-04-25T06:04:34.328Z,200.00
2019-04-25T06:05:34.309Z,200.00
2019-04-25T06:06:36.620Z,196.00
2019-04-25T06:07:45.365Z,200.00
2019-04-25T06:08:35.221Z,192.00
2019-04-25T06:09:35.848Z,200.00
2019-04-25T06:10:34.289Z,196.00
2019-04-25T06:11:34.233Z,200.00
2019-04-25T06:12:34.227Z,192.00
2019-04-25T06:13:34.214Z,200.00
2019-04-25T06:14:34.206Z,204.00
2019-04-25T06:15:34.193Z,200.00
2019-04-25T06:16:34.306Z,200.00
2019-04-25T06:17:34.371Z,200.00
2019-04-25T06:18:34.155Z,200.00
2019-04-25T06:19:34.149Z,200.00
2019-04-25T06:20:34.386Z,196.00
2019-04-25T06:21:34.126Z,200.00
2019-04-25T06:22:34.151Z,200.00
2019-04-25T06:23:34.146Z,200.00
2019-04-25T06:24:34.365Z,200.00
2019-04-25T06:25:38.907Z,200.00
2019-04-25T06:26:39.582Z,204.00
2019-04-25T06:27:35.286Z,204.00
2019-04-25T06:28:34.632Z,204.00
2019-04-25T06:29:34.797Z,212.00
2019-04-25T06:30:35.244Z,212.00
2019-04-25T06:31:34.224Z,212.00
2019-04-25T06:32:35.323Z,212.00
2019-04-25T06:33:34.095Z,212.00
2019-04-25T06:34:36.284Z,212.00
2019-04-25T06:35:35.646Z,208.00
2019-04-25T06:36:35.311Z,208.00
2019-04-25T06:37:35.050Z,204.00
2019-04-25T06:38:44.852Z,208.00
2019-04-25T06:39:34.034Z,200.00
2019-04-25T06:40:34.557Z,208.00
2019-04-25T06:41:34.374Z,212.00
2019-04-25T06:42:34.693Z,208.00
2019-04-25T06:43:34.269Z,208.00
2019-04-25T06:44:34.585Z,208.00
2019-04-25T06:45:34.411Z,208.00
2019-04-25T06:46:33.925Z,208.00
2019-04-25T06:47:34.163Z,208.00
2019-04-25T06:48:35.075Z,204.00
2019-04-25T06:49:36.373Z,208.00
2019-04-25T06:50:35.291Z,208.00
2019-04-25T06:51:34.293Z,208.00
2019-04-25T06:52:35.354Z,208.00
2019-04-25T06:53:34.621Z,204.00
2019-04-25T06:54:35.120Z,208.00
2019-04-25T06:55:34.298Z,208.00
2019-04-25T06:56:34.494Z,208.00
2019-04-25T06:57:34.178Z,208.00
2019-04-25T06:58:34.218Z,212.00
2019-04-25T06:59:34.475Z,208.00
2019-04-25T07:00:40.794Z,208.00
2019-04-25T07:01:34.728Z,212.00
2019-04-25T07:02:35.134Z,216.00
2019-04-25T07:03:35.263Z,208.00
2019-04-25T07:04:34.832Z,216.00
2019-04-25T07:05:40.002Z,212.00
2019-04-25T07:06:34.742Z,212.00
2019-04-25T07:07:35.132Z,212.00
2019-04-25T07:08:35.198Z,212.00
2019-04-25T07:09:45.943Z,212.00
2019-04-25T07:10:34.838Z,212.00
2019-04-25T07:11:34.861Z,212.00
2019-04-25T07:12:34.852Z,216.00
2019-04-25T07:13:35.723Z,212.00
2019-04-25T07:14:36.923Z,212.00
2019-04-25T07:15:34.099Z,216.00
2019-04-25T07:16:34.626Z,212.00
2019-04-25T07:17:35.001Z,212.00
2019-04-25T07:18:36.343Z,216.00
2019-04-25T07:19:34.306Z,220.00
2019-04-25T07:20:34.548Z,220.00
2019-04-25T07:21:34.680Z,228.00
2019-04-25T07:22:34.765Z,228.00
2019-04-25T07:23:34.643Z,228.00
2019-04-25T07:24:35.019Z,228.00
2019-04-25T07:25:35.335Z,228.00
2019-04-25T07:26:37.711Z,228.00
2019-04-25T07:27:35.581Z,228.00
2019-04-25T07:28:35.677Z,224.00
2019-04-25T07:29:33.754Z,224.00
2019-04-25T07:30:48.599Z,220.00
2019-04-25T07:31:34.822Z,224.00
2019-04-25T07:32:34.825Z,224.00
2019-04-25T07:33:34.722Z,224.00
2019-04-25T07:34:34.115Z,216.00
2019-04-25T07:35:34.575Z,200.00
2019-04-25T07:36:34.782Z,208.00
2019-04-25T07:37:34.923Z,208.00
2019-04-25T07:38:34.025Z,204.00
2019-04-25T07:39:34.409Z,204.00
2019-04-25T07:40:43.857Z,208.00
2019-04-25T07:41:34.278Z,204.00
2019-04-25T07:42:34.224Z,208.00
2019-04-25T07:43:34.103Z,208.00
2019-04-25T07:44:45.376Z,204.00
2019-04-25T07:45:35.053Z,208.00
2019-04-25T07:46:37.245Z,212.00
2019-04-25T07:47:35.122Z,212.00
2019-04-25T07:48:34.241Z,212.00
2019-04-25T07:49:34.691Z,212.00
2019-04-25T07:50:34.330Z,216.00
2019-04-25T07:51:34.604Z,200.00
2019-04-25T07:52:34.338Z,208.00
2019-04-25T07:53:34.600Z,216.00
2019-04-25T07:54:34.406Z,216.00
2019-04-25T07:55:35.902Z,220.00
2019-04-25T07:56:35.001Z,220.00
2019-04-25T07:57:34.572Z,220.00
2019-04-25T07:58:44.987Z,220.00
2019-04-25T07:59:35.328Z,220.00
2019-04-25T08:00:35.155Z,216.00
2019-04-25T08:01:33.773Z,216.00
2019-04-25T08:02:34.139Z,212.00
2019-04-25T08:03:34.393Z,216.00
2019-04-25T08:04:34.833Z,216.00
2019-04-25T08:05:35.134Z,216.00
2019-04-25T08:06:34.322Z,216.00
2019-04-25T08:07:33.929Z,216.00
2019-04-25T08:08:33.963Z,220.00
2019-04-25T08:09:35.202Z,216.00
2019-04-25T08:10:33.865Z,216.00
2019-04-25T08:11:43.448Z,216.00
2019-04-25T08:12:34.649Z,216.00
2019-04-25T08:13:34.255Z,220.00
2019-04-25T08:14:34.169Z,220.00
2019-04-25T08:15:33.896Z,220.00
2019-04-25T08:16:34.325Z,220.00
2019-04-25T08:17:34.647Z,220.00
2019-04-25T08:18:32.835Z,220.00
2019-04-25T08:19:33.491Z,224.00
2019-04-25T08:20:34.322Z,220.00
2019-04-25T08:21:34.426Z,220.00
2019-04-25T08:22:34.482Z,224.00
2019-04-25T08:23:36.715Z,224.00
2019-04-25T08:24:34.604Z,224.00
2019-04-25T08:25:33.450Z,224.00
2019-04-25T08:26:34.825Z,224.00
2019-04-25T08:27:34.171Z,224.00
2019-04-25T08:28:34.481Z,224.00
2019-04-25T08:29:36.431Z,224.00
2019-04-25T08:30:35.183Z,224.00
2019-04-25T08:31:34.769Z,228.00
2019-04-25T08:32:35.087Z,228.00
2019-04-25T08:33:34.312Z,228.00
2019-04-25T08:34:34.416Z,224.00
2019-04-25T08:35:34.205Z,224.00
2019-04-25T08:36:33.829Z,228.00
2019-04-25T08:37:34.463Z,228.00
2019-04-25T08:38:34.508Z,228.00
2019-04-25T08:39:34.045Z,228.00
2019-04-25T08:40:35.017Z,228.00
2019-04-25T08:41:34.828Z,228.00
2019-04-25T08:42:44.166Z,228.00
2019-04-25T08:43:36.320Z,228.00
2019-04-25T08:44:34.810Z,228.00
2019-04-25T08:45:33.546Z,228.00
2019-04-25T08:46:35.428Z,228.00
2019-04-25T08:47:34.425Z,228.00
2019-04-25T08:48:34.484Z,232.00
2019-04-25T08:49:34.727Z,232.00
2019-04-25T08:50:35.830Z,232.00
2019-04-25T08:51:34.876Z,232.00
2019-04-25T08:52:34.792Z,220.00
2019-04-25T08:53:34.478Z,220.00
2019-04-25T08:54:34.366Z,220.00
2019-04-25T08:55:34.356Z,224.00
2019-04-25T08:56:34.250Z,228.00
2019-04-25T08:57:33.870Z,232.00
2019-04-25T08:58:34.476Z,224.00
2019-04-25T08:59:39.727Z,236.00
2019-04-25T09:00:35.527Z,248.00
2019-04-25T09:01:34.317Z,252.00
2019-04-25T09:02:36.014Z,252.00
2019-04-25T09:03:32.920Z,252.00
2019-04-25T09:04:33.178Z,256.00
2019-04-25T09:05:33.380Z,260.00
2019-04-25T09:06:33.301Z,256.00
2019-04-25T09:07:34.941Z,260.00
2019-04-25T09:08:33.035Z,252.00
2019-04-25T09:09:34.967Z,248.00
2019-04-25T09:10:35.247Z,252.00
2019-04-25T09:11:34.485Z,252.00
2019-04-25T09:12:32.821Z,256.00
2019-04-25T09:13:43.863Z,256.00
2019-04-25T09:14:32.417Z,244.00
2019-04-25T09:15:33.723Z,272.00
2019-04-25T09:16:34.492Z,236.00
2019-04-25T09:17:33.170Z,244.00
2019-04-25T09:18:34.713Z,244.00
2019-04-25T09:19:33.596Z,236.00
2019-04-25T09:20:34.830Z,248.00
2019-04-25T09:21:34.180Z,248.00
2019-04-25T09:22:32.151Z,248.00
2019-04-25T09:23:34.427Z,248.00
2019-04-25T09:24:32.108Z,248.00
2019-04-25T09:25:34.515Z,240.00
2019-04-25T09:26:32.432Z,248.00
2019-04-25T09:27:34.312Z,240.00
2019-04-25T09:28:34.723Z,240.00
2019-04-25T09:29:34.378Z,232.00
2019-04-25T09:30:32.037Z,232.00
2019-04-25T09:31:34.539Z,228.00
2019-04-25T09:32:33.835Z,236.00
2019-04-25T09:33:32.009Z,236.00
2019-04-25T09:34:33.519Z,216.00
2019-04-25T09:35:33.528Z,236.00
2019-04-25T09:36:33.522Z,244.00
2019-04-25T09:37:33.477Z,240.00
2019-04-25T09:38:31.950Z,240.00
2019-04-25T09:39:33.592Z,244.00
2019-04-25T09:40:31.944Z,240.00
2019-04-25T09:41:33.489Z,244.00
2019-04-25T09:42:33.667Z,236.00
2019-04-25T09:43:33.401Z,236.00
2019-04-25T09:44:42.499Z,232.00
2019-04-25T09:45:33.495Z,232.00
2019-04-25T09:46:31.867Z,232.00
2019-04-25T09:47:33.432Z,232.00
2019-04-25T09:48:31.845Z,228.00
2019-04-25T09:49:31.829Z,236.00
2019-04-25T09:50:31.862Z,248.00
2019-04-25T09:51:33.453Z,236.00
2019-04-25T09:52:31.797Z,236.00
2019-04-25T09:53:31.787Z,248.00
2019-04-25T09:54:33.321Z,236.00
2019-04-25T09:55:31.770Z,244.00
2019-04-25T09:56:31.793Z,236.00
2019-04-25T09:57:33.284Z,240.00
2019-04-25T09:58:31.735Z,240.00
2019-04-25T09:59:33.203Z,244.00
2019-04-25T10:00:33.328Z,244.00
2019-04-25T10:01:31.701Z,236.00
2019-04-25T10:02:31.726Z,240.00
2019-04-25T10:03:33.257Z,244.00
2019-04-25T10:04:34.474Z,240.00
2019-04-25T10:05:31.652Z,236.00
2019-04-25T10:06:33.208Z,244.00
2019-04-25T10:07:31.631Z,244.00
2019-04-25T10:08:31.633Z,240.00
2019-04-25T10:09:31.613Z,244.00
2019-04-25T10:10:31.600Z,232.00
2019-04-25T10:11:31.586Z,256.00
2019-04-25T10:12:31.631Z,248.00
2019-04-25T10:13:31.604Z,256.00
2019-04-25T10:14:31.561Z,252.00
2019-04-25T10:15:43.016Z,240.00
2019-04-25T10:16:31.534Z,228.00
2019-04-25T10:17:31.531Z,248.00
2019-04-25T10:18:32.959Z,244.00
2019-04-25T10:19:31.507Z,244.00
2019-04-25T10:20:33.253Z,244.00
2019-04-25T10:21:31.476Z,248.00
2019-04-25T10:22:31.466Z,248.00
2019-04-25T10:23:31.461Z,240.00
2019-04-25T10:24:31.464Z,248.00
2019-04-25T10:25:31.467Z,244.00
2019-04-25T10:26:31.428Z,244.00
2019-04-25T10:27:31.416Z,244.00
2019-04-25T10:28:31.405Z,244.00
2019-04-25T10:29:41.200Z,248.00
2019-04-25T10:30:32.414Z,248.00
2019-04-25T10:31:31.372Z,248.00
2019-04-25T10:32:31.358Z,252.00
2019-04-25T10:33:31.347Z,244.00
2019-04-25T10:34:31.334Z,248.00
2019-04-25T10:35:31.330Z,256.00
2019-04-25T10:36:31.354Z,256.00
2019-04-25T10:37:31.305Z,256.00
2019-04-25T10:38:31.341Z,256.00
2019-04-25T10:39:31.285Z,252.00
2019-04-25T10:40:31.280Z,248.00
2019-04-25T10:41:31.258Z,240.00
2019-04-25T10:42:31.275Z,236.00
2019-04-25T10:43:31.238Z,244.00
2019-04-25T10:44:31.230Z,244.00
2019-04-25T10:45:31.214Z,244.00
2019-04-25T10:46:41.744Z,244.00
2019-04-25T10:47:31.213Z,252.00
2019-04-25T10:48:31.185Z,248.00
2019-04-25T10:49:31.173Z,244.00
2019-04-25T10:50:31.159Z,248.00
2019-04-25T10:51:31.146Z,248.00
2019-04-25T10:52:31.134Z,252.00
2019-04-25T10:53:31.167Z,252.00
2019-04-25T10:54:31.116Z,252.00
2019-04-25T10:55:31.104Z,248.00
2019-04-25T10:56:31.091Z,248.00
2019-04-25T10:57:31.079Z,248.00
2019-04-25T10:58:31.074Z,244.00
2019-04-25T10:59:31.096Z,244.00
2019-04-25T11:00:31.045Z,252.00
2019-04-25T11:01:31.040Z,252.00
2019-04-25T11:02:31.032Z,252.00
2019-04-25T11:03:31.021Z,248.00
2019-04-25T11:04:31.004Z,248.00
2019-04-25T11:05:31.035Z,248.00
2019-04-25T11:06:30.986Z,252.00
2019-04-25T11:07:30.975Z,244.00
2019-04-25T11:08:30.963Z,248.00
2019-04-25T11:09:30.946Z,248.00
2019-04-25T11:10:30.944Z,252.00
2019-04-25T11:11:30.935Z,248.00
2019-04-25T11:12:30.925Z,248.00
2019-04-25T11:13:30.904Z,252.00
2019-04-25T11:14:30.894Z,244.00
2019-04-25T11:15:30.888Z,248.00
2019-04-25T11:16:30.914Z,248.00
2019-04-25T11:17:40.781Z,248.00
2019-04-25T11:18:30.851Z,244.00
2019-04-25T11:19:30.840Z,248.00
2019-04-25T11:20:30.825Z,244.00
2019-04-25T11:21:30.822Z,228.00
2019-04-25T11:22:30.812Z,244.00
2019-04-25T11:23:30.796Z,248.00
2019-04-25T11:24:30.789Z,248.00
2019-04-25T11:25:30.784Z,248.00
2019-04-25T11:26:30.767Z,244.00
2019-04-25T11:27:30.768Z,248.00
2019-04-25T11:28:30.736Z,248.00
2019-04-25T11:29:30.728Z,252.00
2019-04-25T11:30:30.720Z,248.00
2019-04-25T11:31:30.703Z,244.00
2019-04-25T11:32:30.697Z,252.00
2019-04-25T11:33:30.727Z,244.00
2019-04-25T11:34:30.679Z,232.00
2019-04-25T11:35:30.662Z,252.00
2019-04-25T11:36:30.653Z,248.00
2019-04-25T11:37:30.638Z,244.00
2019-04-25T11:38:30.928Z,252.00
2019-04-25T11:39:30.653Z,252.00
2019-04-25T11:40:30.603Z,248.00
2019-04-25T11:41:31.157Z,248.00
2019-04-25T11:42:30.588Z,252.00
2019-04-25T11:43:30.574Z,252.00
2019-04-25T11:44:30.558Z,252.00
2019-04-25T11:45:30.591Z,252.00
2019-04-25T11:46:30.545Z,252.00
2019-04-25T11:47:30.533Z,244.00
2019-04-25T11:48:40.614Z,240.00
2019-04-25T11:49:30.503Z,240.00
2019-04-25T11:50:30.500Z,240.00
2019-04-25T11:51:30.489Z,240.00
2019-04-25T11:52:30.492Z,244.00
2019-04-25T11:53:30.460Z,240.00
2019-04-25T11:54:30.451Z,244.00
2019-04-25T11:55:30.450Z,248.00
2019-04-25T11:56:30.437Z,244.00
2019-04-25T11:57:30.418Z,244.00
2019-04-25T11:58:30.412Z,248.00
2019-04-25T11:59:30.400Z,244.00
2019-04-25T12:00:30.382Z,248.00
2019-04-25T12:01:30.413Z,244.00
2019-04-25T12:02:30.372Z,240.00
2019-04-25T12:03:30.354Z,244.00
2019-04-25T12:04:30.338Z,240.00
2019-04-25T12:05:30.334Z,244.00
2019-04-25T12:06:30.320Z,244.00
2019-04-25T12:07:30.344Z,248.00
2019-04-25T12:08:30.298Z,248.00
2019-04-25T12:09:30.290Z,252.00
2019-04-25T12:10:30.275Z,248.00
2019-04-25T12:11:30.266Z,252.00
2019-04-25T12:12:30.292Z,248.00
2019-04-25T12:13:30.255Z,248.00
2019-04-25T12:14:30.232Z,248.00
2019-04-25T12:15:30.219Z,252.00
2019-04-25T12:16:30.206Z,248.00
2019-04-25T12:17:30.194Z,252.00
2019-04-25T12:18:30.220Z,244.00
2019-04-25T12:19:41.391Z,248.00
2019-04-25T12:20:30.160Z,252.00
2019-04-25T12:21:30.157Z,248.00
2019-04-25T12:22:30.140Z,248.00
2019-04-25T12:23:30.133Z,248.00
2019-04-25T12:24:30.125Z,236.00
2019-04-25T12:25:30.115Z,248.00
2019-04-25T12:26:30.099Z,248.00
2019-04-25T12:27:30.089Z,248.00
2019-04-25T12:28:30.072Z,236.00
2019-04-25T12:29:30.079Z,248.00
2019-04-25T12:30:38.094Z,248.00
2019-04-25T12:31:31.045Z,244.00
2019-04-25T12:32:30.030Z,248.00
2019-04-25T12:33:30.021Z,248.00
2019-04-25T12:34:30.007Z,248.00
2019-04-25T12:35:30.012Z,248.00
2019-04-25T12:36:29.984Z,248.00
2019-04-25T12:37:29.980Z,252.00
2019-04-25T12:38:29.960Z,252.00
2019-04-25T12:39:29.956Z,252.00
2019-04-25T12:40:29.947Z,248.00
2019-04-25T12:41:29.946Z,60.00
2019-04-25T12:42:29.917Z,60.00
2019-04-25T12:43:29.916Z,60.00
2019-04-25T12:44:29.894Z,60.00
2019-04-25T12:45:29.886Z,60.00